createdAt,value
2019-03-20T00:01:13.357Z,3.03
2019-03-20T00:03:39.986Z,4.67
2019-03-20T00:06:06.448Z,3.70
2019-03-20T00:08:32.985Z,3.50
2019-03-20T00:10:59.573Z,3.70
2019-03-20T00:13:26.225Z,3.60
2019-03-20T00:15:52.894Z,3.23
2019-03-20T00:18:19.428Z,3.13
2019-03-20T00:20:46.107Z,4.00
2019-03-20T00:23:12.613Z,3.50
2019-03-20T00:25:39.198Z,3.67
2019-03-20T00:28:05.843Z,3.30
2019-03-20T00:30:32.671Z,4.33
2019-03-20T00:32:59.437Z,3.60
2019-03-20T00:35:26.074Z,3.60
2019-03-20T00:37:52.713Z,3.70
2019-03-20T00:40:19.585Z,3.00
2019-03-20T00:42:46.220Z,3.33
2019-03-20T00:45:17.870Z,3.00
2019-03-20T00:47:44.620Z,4.37
2019-03-20T00:50:15.349Z,3.50
2019-03-20T00:52:42.280Z,3.20
2019-03-20T00:55:10.526Z,3.60
2019-03-20T00:57:37.415Z,2.80
2019-03-20T01:00:07.569Z,3.50
2019-03-20T01:02:35.843Z,3.33
2019-03-20T01:05:12.179Z,3.80
2019-03-20T01:07:31.745Z,3.43
2019-03-20T01:09:58.291Z,3.50
2019-03-20T01:12:24.869Z,3.40
2019-03-20T01:14:51.414Z,3.40
2019-03-20T01:17:17.995Z,3.07
2019-03-20T01:19:44.438Z,3.70
2019-03-20T01:22:11.014Z,3.00
2019-03-20T01:24:37.646Z,2.73
2019-03-20T01:27:04.211Z,3.53
2019-03-20T01:29:30.752Z,3.43
2019-03-20T01:31:57.376Z,3.00
2019-03-20T01:34:23.909Z,3.10
2019-03-20T01:36:50.579Z,3.90
2019-03-20T01:39:17.109Z,3.00
2019-03-20T01:41:45.423Z,3.47
2019-03-20T01:44:11.873Z,3.50
2019-03-20T01:46:38.476Z,3.47
2019-03-20T01:49:05.003Z,3.30
2019-03-20T01:51:31.572Z,3.90
2019-03-20T01:53:58.117Z,2.90
2019-03-20T01:56:24.802Z,3.13
2019-03-20T01:58:51.745Z,3.20
2019-03-20T02:01:18.310Z,2.83
2019-03-20T02:03:44.840Z,3.40
2019-03-20T02:06:11.558Z,3.50
2019-03-20T02:08:38.050Z,3.13
2019-03-20T02:11:04.686Z,3.67
2019-03-20T02:13:32.972Z,3.87
2019-03-20T02:15:59.622Z,2.90
2019-03-20T02:18:28.332Z,3.90
2019-03-20T02:20:57.317Z,3.70
2019-03-20T02:23:24.334Z,3.83
2019-03-20T02:25:50.968Z,2.90
2019-03-20T02:28:17.640Z,3.10
2019-03-20T02:30:44.208Z,3.17
2019-03-20T02:33:10.886Z,3.73
2019-03-20T02:35:50.582Z,3.30
2019-03-20T02:38:05.907Z,3.27
2019-03-20T02:40:32.643Z,3.73
2019-03-20T02:42:59.421Z,3.70
2019-03-20T02:45:25.940Z,3.37
2019-03-20T02:47:52.503Z,3.77
2019-03-20T02:50:19.043Z,3.57
2019-03-20T02:52:45.609Z,3.83
2019-03-20T02:55:12.657Z,3.40
2019-03-20T02:57:39.320Z,3.73
2019-03-20T03:00:16.552Z,4.20
2019-03-20T03:02:44.928Z,3.87
2019-03-20T03:05:12.440Z,4.57
2019-03-20T03:07:39.111Z,3.80
2019-03-20T03:10:10.525Z,4.20
2019-03-20T03:12:37.295Z,4.00
2019-03-20T03:15:06.239Z,4.83
2019-03-20T03:17:32.896Z,3.87
2019-03-20T03:19:59.428Z,4.60
2019-03-20T03:22:26.116Z,5.03
2019-03-20T03:24:52.651Z,5.80
2019-03-20T03:27:19.211Z,4.67
2019-03-20T03:29:47.024Z,6.73
2019-03-20T03:32:13.786Z,5.10
2019-03-20T03:34:40.658Z,5.43
2019-03-20T03:37:08.486Z,5.03
2019-03-20T03:39:35.584Z,4.90
2019-03-20T03:42:02.222Z,4.93
2019-03-20T03:44:28.780Z,4.70
2019-03-20T03:46:55.429Z,5.20
2019-03-20T03:49:22.006Z,4.07
2019-03-20T03:51:48.546Z,3.63
2019-03-20T03:54:15.217Z,4.00
2019-03-20T03:56:42.058Z,4.07
2019-03-20T03:59:08.877Z,3.90
2019-03-20T04:01:35.516Z,4.07
2019-03-20T04:04:02.077Z,3.80
2019-03-20T04:06:35.585Z,3.50
2019-03-20T04:08:56.876Z,3.80
2019-03-20T04:11:23.503Z,4.33
2019-03-20T04:13:50.065Z,4.77
2019-03-20T04:16:16.710Z,4.17
2019-03-20T04:18:43.375Z,3.63
2019-03-20T04:21:10.064Z,3.57
2019-03-20T04:23:36.654Z,3.90
2019-03-20T04:26:03.294Z,4.77
2019-03-20T04:28:29.853Z,3.73
2019-03-20T04:30:56.523Z,3.40
2019-03-20T04:33:23.787Z,4.47
2019-03-20T04:35:50.532Z,3.67
2019-03-20T04:38:17.303Z,3.33
2019-03-20T04:40:44.925Z,3.33
2019-03-20T04:43:11.603Z,3.10
2019-03-20T04:45:38.121Z,3.40
2019-03-20T04:48:04.671Z,3.37
2019-03-20T04:50:31.239Z,3.93
2019-03-20T04:52:57.886Z,2.80
2019-03-20T04:55:24.548Z,4.27
2019-03-20T04:57:51.192Z,3.57
2019-03-20T05:00:22.077Z,3.57
2019-03-20T05:02:48.604Z,4.50
2019-03-20T05:05:15.171Z,3.23
2019-03-20T05:07:41.815Z,2.80
2019-03-20T05:10:13.752Z,2.87
2019-03-20T05:12:40.581Z,2.47
2019-03-20T05:15:09.947Z,3.33
2019-03-20T05:17:36.974Z,3.27
2019-03-20T05:20:07.382Z,3.13
2019-03-20T05:22:34.017Z,3.00
2019-03-20T05:25:00.746Z,2.83
2019-03-20T05:27:27.273Z,3.00
2019-03-20T05:29:55.549Z,3.00
2019-03-20T05:32:22.281Z,3.37
2019-03-20T05:34:48.953Z,2.87
2019-03-20T05:37:17.193Z,3.50
2019-03-20T05:39:43.772Z,3.50
2019-03-20T05:42:10.397Z,3.23
2019-03-20T05:44:36.965Z,3.40
2019-03-20T05:47:03.621Z,3.43
2019-03-20T05:49:30.188Z,3.30
2019-03-20T05:51:56.727Z,3.33
2019-03-20T05:54:23.300Z,3.90
2019-03-20T05:56:49.934Z,3.50
2019-03-20T05:59:16.635Z,2.97
2019-03-20T06:01:43.150Z,3.03
2019-03-20T06:04:09.713Z,3.00
2019-03-20T06:06:36.249Z,3.40
2019-03-20T06:09:05.295Z,2.90
2019-03-20T06:11:31.969Z,3.97
2019-03-20T06:13:58.505Z,3.50
2019-03-20T06:16:25.082Z,3.80
2019-03-20T06:18:51.881Z,3.90
2019-03-20T06:21:18.505Z,4.57
2019-03-20T06:23:45.053Z,4.20
2019-03-20T06:26:11.618Z,3.70
2019-03-20T06:28:39.002Z,5.43
2019-03-20T06:31:05.688Z,4.80
2019-03-20T06:33:32.221Z,5.90
2019-03-20T06:35:58.801Z,5.03
2019-03-20T06:38:25.806Z,5.30
2019-03-20T06:40:52.432Z,5.57
2019-03-20T06:43:18.969Z,5.97
2019-03-20T06:45:45.533Z,5.20
2019-03-20T06:48:12.063Z,6.90
2019-03-20T06:50:38.938Z,6.97
2019-03-20T06:53:05.675Z,7.80
2019-03-20T06:55:32.844Z,8.80
2019-03-20T06:57:59.392Z,8.20
2019-03-20T07:00:36.123Z,8.27
2019-03-20T07:03:27.829Z,8.13
2019-03-20T07:06:13.668Z,9.23
2019-03-20T07:08:56.469Z,9.27
2019-03-20T07:11:23.028Z,9.30
2019-03-20T07:13:50.737Z,8.33
2019-03-20T07:16:17.338Z,9.70
2019-03-20T07:18:44.008Z,11.20
2019-03-20T07:21:10.693Z,11.17
2019-03-20T07:23:37.988Z,11.07
2019-03-20T07:26:05.416Z,11.30
2019-03-20T07:28:32.185Z,11.80
2019-03-20T07:30:58.754Z,12.17
2019-03-20T07:33:25.340Z,12.30
2019-03-20T07:35:52.217Z,12.37
2019-03-20T07:38:18.861Z,12.50
2019-03-20T07:40:45.515Z,13.80
2019-03-20T07:43:12.084Z,12.57
2019-03-20T07:45:38.928Z,13.30
2019-03-20T07:48:05.493Z,14.60
2019-03-20T07:50:32.028Z,14.50
2019-03-20T07:52:58.613Z,14.07
2019-03-20T07:55:25.249Z,14.77
2019-03-20T07:57:51.941Z,14.93
2019-03-20T08:00:18.480Z,14.57
2019-03-20T08:02:45.049Z,13.90
2019-03-20T08:05:11.980Z,16.10
2019-03-20T08:07:38.659Z,15.30
2019-03-20T08:10:09.098Z,15.17
2019-03-20T08:12:35.869Z,18.60
2019-03-20T08:15:05.308Z,16.33
2019-03-20T08:17:31.897Z,16.47
2019-03-20T08:19:58.433Z,18.00
2019-03-20T08:22:25.011Z,17.17
2019-03-20T08:24:51.688Z,17.80
2019-03-20T08:27:18.277Z,17.60
2019-03-20T08:29:44.921Z,17.70
2019-03-20T08:32:11.653Z,17.77
2019-03-20T08:34:39.591Z,18.73
2019-03-20T08:37:06.267Z,19.53
2019-03-20T08:39:32.808Z,21.07
2019-03-20T08:41:59.402Z,19.00
2019-03-20T08:44:25.938Z,21.57
2019-03-20T08:46:52.583Z,20.77
2019-03-20T08:49:19.045Z,20.27
2019-03-20T08:51:45.610Z,21.53
2019-03-20T08:54:12.238Z,22.40
2019-03-20T08:56:38.875Z,21.47
2019-03-20T08:59:05.545Z,20.53
2019-03-20T09:01:32.079Z,20.97
2019-03-20T09:03:58.651Z,21.73
2019-03-20T09:06:25.203Z,22.13
2019-03-20T09:08:51.877Z,20.50
2019-03-20T09:11:18.512Z,21.80
2019-03-20T09:13:45.299Z,22.83
2019-03-20T09:16:11.934Z,24.20
2019-03-20T09:18:38.518Z,23.73
2019-03-20T09:21:05.188Z,22.33
2019-03-20T09:23:31.771Z,24.03
2019-03-20T09:25:58.409Z,24.70
2019-03-20T09:28:25.185Z,26.13
2019-03-20T09:30:51.966Z,25.43
2019-03-20T09:33:18.598Z,26.43
2019-03-20T09:35:45.073Z,26.57
2019-03-20T09:38:11.748Z,25.27
2019-03-20T09:40:38.282Z,26.57
2019-03-20T09:43:04.857Z,28.13
2019-03-20T09:45:31.491Z,26.80
2019-03-20T09:47:58.086Z,27.87
2019-03-20T09:50:26.025Z,27.93
2019-03-20T09:52:52.601Z,28.17
2019-03-20T09:55:19.136Z,27.77
2019-03-20T09:57:45.700Z,28.67
2019-03-20T10:00:26.743Z,27.77
2019-03-20T10:02:53.517Z,26.10
2019-03-20T10:05:20.641Z,27.53
2019-03-20T10:07:47.934Z,27.50
2019-03-20T10:10:17.484Z,25.67
2019-03-20T10:12:44.265Z,25.93
2019-03-20T10:15:13.605Z,26.67
2019-03-20T10:17:40.381Z,25.63
2019-03-20T10:20:18.540Z,26.03
2019-03-20T10:22:45.410Z,26.70
2019-03-20T10:25:12.757Z,25.40
2019-03-20T10:27:39.344Z,25.13
2019-03-20T10:30:17.930Z,26.67
2019-03-20T10:32:44.727Z,24.23
2019-03-20T10:35:11.773Z,23.57
2019-03-20T10:37:38.632Z,25.33
2019-03-20T10:40:14.996Z,24.20
2019-03-20T10:42:41.635Z,23.90
2019-03-20T10:45:10.715Z,22.10
2019-03-20T10:47:37.257Z,24.00
2019-03-20T10:50:13.900Z,23.57
2019-03-20T10:52:41.540Z,24.00
2019-03-20T10:55:09.021Z,22.93
2019-03-20T10:57:35.649Z,23.70
2019-03-20T11:00:20.797Z,25.53
2019-03-20T11:02:49.041Z,24.00
2019-03-20T11:05:16.531Z,26.63
2019-03-20T11:07:43.170Z,25.57
2019-03-20T11:10:12.957Z,24.87
2019-03-20T11:12:39.485Z,23.80
2019-03-20T11:15:09.470Z,25.60
2019-03-20T11:17:35.903Z,25.70
2019-03-20T11:20:05.680Z,23.57
2019-03-20T11:22:32.225Z,26.20
2019-03-20T11:24:58.829Z,24.07
2019-03-20T11:27:27.468Z,23.33
2019-03-20T11:29:53.858Z,23.50
2019-03-20T11:32:20.637Z,23.90
2019-03-20T11:34:47.205Z,23.63
2019-03-20T11:37:13.950Z,23.77
2019-03-20T11:39:40.513Z,23.90
2019-03-20T11:42:07.148Z,22.63
2019-03-20T11:44:33.816Z,22.70
2019-03-20T11:47:00.471Z,23.10
2019-03-20T11:49:27.136Z,21.50
2019-03-20T11:51:53.778Z,21.60
2019-03-20T11:54:20.442Z,20.87
2019-03-20T11:56:47.100Z,19.63
2019-03-20T11:59:13.680Z,18.43
2019-03-20T12:01:40.329Z,20.23
2019-03-20T12:04:06.900Z,20.73
2019-03-20T12:06:33.632Z,20.37
2019-03-20T12:09:00.813Z,21.00
2019-03-20T12:11:27.665Z,20.67
2019-03-20T12:13:54.303Z,20.20
2019-03-20T12:16:21.875Z,19.37
2019-03-20T12:18:48.487Z,19.50
2019-03-20T12:21:15.116Z,17.30
2019-03-20T12:23:41.652Z,19.60
2019-03-20T12:26:09.448Z,17.87
2019-03-20T12:28:36.197Z,17.80
2019-03-20T12:31:03.043Z,18.90
2019-03-20T12:33:29.687Z,17.30
2019-03-20T12:35:56.276Z,16.00
2019-03-20T12:38:22.820Z,16.87
2019-03-20T12:40:49.401Z,16.37
2019-03-20T12:43:16.038Z,16.33
2019-03-20T12:45:42.704Z,16.27
2019-03-20T12:48:17.045Z,16.67
2019-03-20T12:50:43.715Z,17.60
2019-03-20T12:53:16.895Z,17.90
2019-03-20T12:55:43.664Z,16.33
2019-03-20T12:58:10.200Z,16.10
2019-03-20T13:00:36.793Z,17.07
2019-03-20T13:03:03.529Z,17.97
2019-03-20T13:05:30.197Z,18.30
2019-03-20T13:08:05.335Z,18.53
2019-03-20T13:10:26.635Z,17.50
2019-03-20T13:12:53.478Z,19.13
2019-03-20T13:15:25.198Z,19.73
2019-03-20T13:17:52.828Z,18.57
2019-03-20T13:20:19.698Z,17.63
2019-03-20T13:23:02.363Z,19.13
2019-03-20T13:25:29.536Z,18.03
2019-03-20T13:27:56.177Z,18.90
2019-03-20T13:30:35.986Z,18.80
2019-03-20T13:33:02.999Z,19.50
2019-03-20T13:35:29.580Z,21.67
2019-03-20T13:37:56.130Z,21.07
2019-03-20T13:40:23.804Z,22.83
2019-03-20T13:42:52.046Z,23.13
2019-03-20T13:45:24.092Z,24.93
2019-03-20T13:47:50.748Z,24.47
2019-03-20T13:50:17.315Z,26.20
2019-03-20T13:52:44.057Z,25.30
2019-03-20T13:55:12.711Z,26.17
2019-03-20T13:57:39.284Z,26.53
2019-03-20T14:00:18.091Z,27.03
2019-03-20T14:02:44.668Z,26.47
2019-03-20T14:05:12.004Z,26.60
2019-03-20T14:07:38.684Z,25.93
2019-03-20T14:10:11.945Z,27.23
2019-03-20T14:12:38.527Z,25.10
2019-03-20T14:15:07.892Z,26.43
2019-03-20T14:17:34.537Z,29.20
2019-03-20T14:20:01.086Z,27.07
2019-03-20T14:22:27.662Z,30.87
2019-03-20T14:24:54.349Z,29.23
2019-03-20T14:27:20.929Z,32.50
2019-03-20T14:29:49.177Z,29.97
2019-03-20T14:32:15.886Z,30.70
2019-03-20T14:34:43.024Z,29.40
2019-03-20T14:37:10.521Z,31.83
2019-03-20T14:39:38.762Z,30.80
2019-03-20T14:42:05.542Z,33.10
2019-03-20T14:44:32.080Z,30.97
2019-03-20T14:46:58.664Z,32.57
2019-03-20T14:49:25.299Z,33.43
2019-03-20T14:51:51.875Z,32.73
2019-03-20T14:54:18.422Z,32.50
2019-03-20T14:56:44.995Z,33.40
2019-03-20T14:59:13.251Z,32.30
2019-03-20T15:01:39.826Z,32.97
2019-03-20T15:04:06.451Z,33.97
2019-03-20T15:06:33.240Z,32.27
2019-03-20T15:08:59.790Z,33.00
2019-03-20T15:11:26.664Z,33.93
2019-03-20T15:13:53.418Z,34.17
2019-03-20T15:16:20.085Z,34.20
2019-03-20T15:18:46.537Z,32.33
2019-03-20T15:21:13.075Z,35.37
2019-03-20T15:23:39.651Z,33.00
2019-03-20T15:26:06.600Z,32.30
2019-03-20T15:28:33.266Z,35.07
2019-03-20T15:30:59.863Z,32.70
2019-03-20T15:33:26.417Z,31.50
2019-03-20T15:35:53.452Z,30.90
2019-03-20T15:38:20.350Z,32.47
2019-03-20T15:40:55.883Z,32.70
2019-03-20T15:43:15.191Z,33.00
2019-03-20T15:45:41.727Z,31.83
2019-03-20T15:48:08.297Z,33.27
2019-03-20T15:50:34.945Z,33.70
2019-03-20T15:53:01.622Z,33.80
2019-03-20T15:55:33.427Z,34.00
2019-03-20T15:58:01.863Z,34.13
2019-03-20T16:00:28.456Z,34.40
2019-03-20T16:03:04.952Z,35.27
2019-03-20T16:05:31.898Z,32.87
2019-03-20T16:07:58.469Z,36.10
2019-03-20T16:10:25.004Z,33.97
2019-03-20T16:12:51.639Z,38.50
2019-03-20T16:15:22.390Z,36.10
2019-03-20T16:17:49.057Z,35.93
2019-03-20T16:20:16.994Z,37.63
2019-03-20T16:22:43.586Z,36.83
2019-03-20T16:25:14.353Z,36.33
2019-03-20T16:27:40.913Z,36.97
2019-03-20T16:30:10.969Z,41.60
2019-03-20T16:32:37.873Z,42.77
2019-03-20T16:35:06.723Z,42.20
2019-03-20T16:37:33.284Z,40.83
2019-03-20T16:39:59.935Z,41.73
2019-03-20T16:42:26.620Z,42.17
2019-03-20T16:44:53.173Z,42.07
2019-03-20T16:47:19.749Z,42.87
2019-03-20T16:49:46.400Z,42.33
2019-03-20T16:52:13.041Z,44.07
2019-03-20T16:54:39.715Z,40.30
2019-03-20T16:57:06.261Z,43.43
2019-03-20T16:59:32.828Z,41.77
2019-03-20T17:01:59.473Z,42.77
2019-03-20T17:04:26.172Z,42.57
2019-03-20T17:06:52.797Z,44.97
2019-03-20T17:09:19.367Z,46.50
2019-03-20T17:11:45.938Z,47.63
2019-03-20T17:14:12.916Z,43.70
2019-03-20T17:16:42.703Z,45.90
2019-03-20T17:19:09.022Z,47.80
2019-03-20T17:21:35.761Z,46.43
2019-03-20T17:24:02.852Z,50.50
2019-03-20T17:26:29.589Z,48.23
2019-03-20T17:28:56.258Z,46.70
2019-03-20T17:31:22.895Z,48.03
2019-03-20T17:33:49.501Z,50.37
2019-03-20T17:36:16.047Z,51.10
2019-03-20T17:38:42.618Z,50.07
2019-03-20T17:41:09.163Z,51.10
2019-03-20T17:43:35.721Z,50.87
2019-03-20T17:46:02.970Z,52.37
2019-03-20T17:48:29.670Z,52.10
2019-03-20T17:50:56.203Z,51.47
2019-03-20T17:53:22.932Z,53.77
2019-03-20T17:55:50.399Z,50.73
2019-03-20T17:58:16.936Z,52.00
2019-03-20T18:00:45.418Z,51.67
2019-03-20T18:03:11.956Z,51.50
2019-03-20T18:05:38.738Z,53.20
2019-03-20T18:08:06.267Z,53.90
2019-03-20T18:10:34.200Z,52.87
2019-03-20T18:13:00.726Z,53.20
2019-03-20T18:15:27.312Z,55.00
2019-03-20T18:17:53.948Z,53.30
2019-03-20T18:20:20.641Z,56.63
2019-03-20T18:22:47.172Z,57.70
2019-03-20T18:25:13.858Z,57.37
2019-03-20T18:27:40.779Z,56.73
2019-03-20T18:30:17.302Z,55.20
2019-03-20T18:32:44.081Z,59.17
2019-03-20T18:35:10.858Z,55.33
2019-03-20T18:37:39.097Z,55.90
2019-03-20T18:40:09.176Z,60.17
2019-03-20T18:42:35.815Z,60.13
2019-03-20T18:45:05.199Z,57.40
2019-03-20T18:47:31.720Z,60.33
2019-03-20T18:49:58.292Z,58.27
2019-03-20T18:52:24.936Z,63.47
2019-03-20T18:54:51.600Z,63.90
2019-03-20T18:57:18.056Z,62.47
2019-03-20T18:59:44.633Z,65.90
2019-03-20T19:02:11.412Z,62.43
2019-03-20T19:04:38.052Z,63.13
2019-03-20T19:07:04.723Z,64.10
2019-03-20T19:09:31.678Z,66.37
2019-03-20T19:12:08.106Z,64.90
2019-03-20T19:14:26.853Z,59.80
2019-03-20T19:16:53.491Z,65.50
2019-03-20T19:19:20.143Z,63.10
2019-03-20T19:21:46.721Z,64.90
2019-03-20T19:24:13.264Z,66.47
2019-03-20T19:26:39.852Z,64.87
2019-03-20T19:29:06.388Z,63.07
2019-03-20T19:31:33.475Z,67.30
2019-03-20T19:34:00.640Z,66.20
2019-03-20T19:36:27.344Z,69.37
2019-03-20T19:38:54.228Z,67.00
2019-03-20T19:41:20.774Z,67.10
2019-03-20T19:43:47.349Z,67.63
2019-03-20T19:46:14.042Z,70.83
2019-03-20T19:48:40.600Z,62.63
2019-03-20T19:51:08.262Z,67.73
2019-03-20T19:53:34.856Z,68.93
2019-03-20T19:56:01.556Z,64.87
2019-03-20T19:58:28.079Z,67.67
2019-03-20T20:00:54.663Z,67.77
2019-03-20T20:03:21.294Z,66.67
2019-03-20T20:05:47.987Z,68.00
2019-03-20T20:08:15.118Z,66.93
2019-03-20T20:10:43.721Z,66.37
2019-03-20T20:13:10.640Z,64.33
2019-03-20T20:15:37.815Z,64.10
2019-03-20T20:18:04.453Z,69.33
2019-03-20T20:20:36.620Z,66.83
2019-03-20T20:23:04.576Z,64.80
2019-03-20T20:25:31.292Z,66.83
2019-03-20T20:27:58.275Z,67.97
2019-03-20T20:30:24.942Z,68.60
2019-03-20T20:32:52.369Z,68.90
2019-03-20T20:35:19.045Z,67.87
2019-03-20T20:37:47.219Z,68.37
2019-03-20T20:40:16.581Z,66.87
2019-03-20T20:42:43.498Z,65.77
2019-03-20T20:45:10.512Z,67.17
2019-03-20T20:47:37.089Z,65.27
2019-03-20T20:50:05.841Z,64.37
2019-03-20T20:52:34.112Z,65.90
2019-03-20T20:55:00.758Z,67.30
2019-03-20T20:57:27.833Z,65.17
2019-03-20T20:59:54.491Z,62.40
2019-03-20T21:02:21.545Z,63.33
2019-03-20T21:04:48.162Z,63.00
2019-03-20T21:07:15.733Z,63.80
2019-03-20T21:09:42.280Z,64.00
2019-03-20T21:12:09.004Z,63.10
2019-03-20T21:14:35.761Z,65.97
2019-03-20T21:17:04.189Z,67.80
2019-03-20T21:19:30.720Z,66.60
2019-03-20T21:22:30.284Z,65.13
2019-03-20T21:24:58.462Z,64.30
2019-03-20T21:27:51.947Z,66.87
2019-03-20T21:30:31.508Z,70.87
2019-03-20T21:33:19.811Z,71.83
2019-03-20T21:36:22.579Z,66.07
2019-03-20T21:38:51.312Z,65.10
2019-03-20T21:41:27.664Z,68.70
2019-03-20T21:44:24.324Z,64.50
2019-03-20T21:47:28.663Z,60.90
2019-03-20T21:49:55.195Z,66.53
2019-03-20T21:52:22.066Z,65.40
2019-03-20T21:55:11.598Z,66.77
2019-03-20T21:57:47.481Z,64.63
2019-03-20T22:00:34.878Z,63.03
2019-03-20T22:03:01.442Z,61.83
2019-03-20T22:06:04.455Z,65.30
2019-03-20T22:08:31.210Z,62.47
2019-03-20T22:11:20.822Z,65.07
2019-03-20T22:13:54.329Z,64.00
2019-03-20T22:16:58.549Z,64.20
2019-03-20T22:19:53.513Z,61.60
2019-03-20T22:22:43.904Z,63.27
2019-03-20T22:25:31.136Z,60.80
2019-03-20T22:28:30.508Z,61.50
2019-03-20T22:30:56.958Z,61.37
2019-03-20T22:34:01.387Z,63.43
2019-03-20T22:36:28.129Z,59.93
2019-03-20T22:39:10.695Z,65.70
2019-03-20T22:41:57.841Z,62.27
2019-03-20T22:44:24.427Z,65.33
2019-03-20T22:47:12.898Z,63.70
2019-03-20T22:50:06.396Z,61.63
2019-03-20T22:52:45.691Z,56.30
2019-03-20T22:55:34.462Z,60.50
2019-03-20T22:58:04.909Z,62.73
2019-03-20T23:00:32.486Z,61.40
2019-03-20T23:03:08.736Z,61.20
2019-03-20T23:05:36.995Z,66.70
2019-03-20T23:08:13.842Z,60.60
2019-03-20T23:10:40.652Z,63.20
2019-03-20T23:13:18.639Z,64.37
2019-03-20T23:15:37.487Z,64.10
2019-03-20T23:18:04.038Z,67.07
2019-03-20T23:20:30.737Z,63.23
2019-03-20T23:22:57.373Z,64.87
2019-03-20T23:25:24.063Z,62.23
2019-03-20T23:27:50.580Z,64.00
2019-03-20T23:30:20.868Z,65.27
2019-03-20T23:32:47.548Z,64.40
2019-03-20T23:35:14.189Z,65.37
2019-03-20T23:37:41.151Z,67.70
2019-03-20T23:40:14.933Z,70.23
2019-03-20T23:42:44.189Z,68.70
2019-03-20T23:45:16.654Z,67.10
2019-03-20T23:48:12.993Z,74.63
2019-03-20T23:50:39.764Z,71.70
2019-03-20T23:53:06.305Z,72.57
2019-03-20T23:55:32.869Z,69.70
2019-03-20T23:57:59.416Z,66.03
